createdAt,value
2023-01-28T00:02:18.354Z,2.50
2023-01-28T00:05:04.659Z,2.10
2023-01-28T00:07:50.987Z,2.60
2023-01-28T00:10:39.647Z,2.10
2023-01-28T00:13:25.323Z,2.00
2023-01-28T00:16:11.564Z,1.67
2023-01-28T00:18:58.025Z,1.60
2023-01-28T00:21:43.983Z,2.00
2023-01-28T00:24:29.762Z,2.43
2023-01-28T00:27:17.912Z,1.97
2023-01-28T00:30:03.800Z,2.30
2023-01-28T00:32:49.287Z,2.27
2023-01-28T00:35:35.103Z,2.20
2023-01-28T00:38:20.387Z,1.70
2023-01-28T00:41:24.760Z,1.60
2023-01-28T00:44:10.209Z,2.10
2023-01-28T00:46:58.058Z,2.07
2023-01-28T00:49:43.851Z,2.23
2023-01-28T00:52:31.845Z,1.87
2023-01-28T00:55:20.522Z,2.67
2023-01-28T00:58:06.110Z,1.77
2023-01-28T01:00:52.021Z,2.03
2023-01-28T01:03:40.314Z,1.60
2023-01-28T01:06:25.961Z,2.30
2023-01-28T01:09:12.885Z,1.87
2023-01-28T01:11:58.371Z,1.80
2023-01-28T01:14:44.119Z,1.97
2023-01-28T01:17:32.874Z,1.93
2023-01-28T01:20:22.288Z,2.73
2023-01-28T01:23:07.695Z,1.60
2023-01-28T01:25:53.588Z,1.80
2023-01-28T01:28:42.825Z,2.00
2023-01-28T01:31:28.527Z,1.73
2023-01-28T01:34:14.162Z,1.87
2023-01-28T01:36:59.926Z,1.60
2023-01-28T01:39:45.831Z,2.07
2023-01-28T01:42:35.769Z,1.90
2023-01-28T01:45:21.499Z,1.63
2023-01-28T01:48:19.175Z,1.60
2023-01-28T01:51:09.062Z,2.50
2023-01-28T01:53:59.060Z,1.50
2023-01-28T01:56:51.065Z,1.13
2023-01-28T01:59:37.943Z,1.30
2023-01-28T02:02:24.330Z,1.50
2023-01-28T02:05:15.990Z,2.07
2023-01-28T02:08:20.848Z,1.27
2023-01-28T02:11:08.765Z,1.77
2023-01-28T02:14:01.296Z,1.90
2023-01-28T02:16:47.291Z,1.03
2023-01-28T02:19:46.826Z,1.50
2023-01-28T02:23:07.088Z,1.40
2023-01-28T02:26:25.682Z,1.63
2023-01-28T02:29:52.820Z,1.70
2023-01-28T02:33:05.022Z,1.77
2023-01-28T02:35:54.948Z,1.63
2023-01-28T02:38:48.466Z,1.40
2023-01-28T02:41:41.958Z,1.53
2023-01-28T02:44:29.640Z,1.37
2023-01-28T02:47:34.707Z,1.87
2023-01-28T02:50:23.339Z,1.80
2023-01-28T02:53:44.150Z,1.23
2023-01-28T02:56:56.107Z,1.50
2023-01-28T03:00:12.080Z,1.47
2023-01-28T03:03:11.371Z,1.37
2023-01-28T03:06:07.105Z,1.30
2023-01-28T03:09:18.248Z,1.20
2023-01-28T03:12:25.027Z,1.30
2023-01-28T03:15:39.441Z,1.43
2023-01-28T03:18:51.117Z,1.20
2023-01-28T03:22:01.168Z,1.00
2023-01-28T03:25:08.641Z,0.83
2023-01-28T03:28:20.387Z,0.90
2023-01-28T03:31:24.348Z,1.00
2023-01-28T03:34:29.681Z,1.13
2023-01-28T03:37:15.196Z,1.27
2023-01-28T03:40:08.051Z,1.20
2023-01-28T03:42:54.252Z,0.93
2023-01-28T03:45:39.681Z,1.30
2023-01-28T03:48:27.318Z,0.90
2023-01-28T03:51:13.048Z,1.63
2023-01-28T03:54:00.621Z,1.13
2023-01-28T03:56:46.565Z,1.30
2023-01-28T03:59:35.353Z,1.23
2023-01-28T04:02:22.448Z,1.30
2023-01-28T04:05:12.975Z,1.00
2023-01-28T04:07:58.705Z,1.20
2023-01-28T04:10:47.173Z,1.40
2023-01-28T04:13:35.077Z,1.27
2023-01-28T04:16:21.312Z,0.83
2023-01-28T04:19:09.520Z,1.57
2023-01-28T04:21:55.086Z,1.10
2023-01-28T04:24:40.628Z,1.10
2023-01-28T04:27:25.855Z,1.13
2023-01-28T04:30:11.520Z,1.47
2023-01-28T04:32:57.099Z,1.53
2023-01-28T04:35:42.670Z,1.23
2023-01-28T04:38:28.436Z,2.03
2023-01-28T04:41:13.854Z,1.00
2023-01-28T04:43:59.225Z,0.87
2023-01-28T04:46:45.367Z,1.27
2023-01-28T04:49:33.147Z,1.10
2023-01-28T04:52:20.630Z,0.90
2023-01-28T04:55:07.094Z,0.87
2023-01-28T04:57:52.409Z,1.20
2023-01-28T05:00:37.650Z,1.17
2023-01-28T05:03:23.774Z,1.30
2023-01-28T05:06:13.873Z,1.33
2023-01-28T05:08:59.239Z,1.53
2023-01-28T05:11:49.260Z,1.70
2023-01-28T05:14:35.045Z,1.30
2023-01-28T05:17:20.699Z,0.97
2023-01-28T05:20:09.544Z,1.00
2023-01-28T05:22:56.370Z,1.20
2023-01-28T05:25:43.905Z,0.97
2023-01-28T05:28:29.491Z,1.17
2023-01-28T05:31:14.868Z,1.23
2023-01-28T05:34:00.530Z,0.90
2023-01-28T05:36:46.173Z,1.37
2023-01-28T05:39:31.972Z,1.33
2023-01-28T05:42:20.867Z,2.00
2023-01-28T05:45:06.797Z,2.30
2023-01-28T05:47:52.196Z,2.00
2023-01-28T05:50:38.013Z,1.87
2023-01-28T05:53:25.999Z,1.77
2023-01-28T05:56:14.401Z,2.50
2023-01-28T05:58:59.722Z,2.63
2023-01-28T06:01:45.211Z,3.07
2023-01-28T06:04:30.893Z,2.80
2023-01-28T06:07:20.170Z,3.13
2023-01-28T06:10:06.259Z,2.90
2023-01-28T06:12:54.080Z,2.50
2023-01-28T06:15:39.426Z,3.03
2023-01-28T06:18:27.865Z,2.80
2023-01-28T06:21:13.149Z,3.37
2023-01-28T06:23:59.527Z,2.67
2023-01-28T06:26:49.884Z,2.50
2023-01-28T06:29:35.569Z,2.20
2023-01-28T06:32:21.711Z,3.07
2023-01-28T06:35:08.812Z,2.70
2023-01-28T06:37:54.879Z,3.10
2023-01-28T06:40:40.786Z,3.37
2023-01-28T06:43:28.242Z,2.70
2023-01-28T06:46:14.124Z,2.97
2023-01-28T06:49:01.737Z,3.07
2023-01-28T06:51:47.041Z,2.70
2023-01-28T06:54:32.211Z,3.20
2023-01-28T06:57:18.312Z,3.20
2023-01-28T07:00:04.863Z,2.50
2023-01-28T07:02:50.023Z,2.67
2023-01-28T07:05:38.203Z,2.73
2023-01-28T07:08:23.940Z,3.93
2023-01-28T07:11:09.465Z,3.23
2023-01-28T07:14:00.088Z,3.33
2023-01-28T07:16:46.126Z,3.03
2023-01-28T07:19:31.609Z,2.50
2023-01-28T07:22:17.047Z,2.80
2023-01-28T07:25:02.510Z,3.20
2023-01-28T07:27:52.905Z,2.67
2023-01-28T07:30:38.480Z,4.47
2023-01-28T07:33:23.980Z,3.23
2023-01-28T07:36:09.931Z,3.10
2023-01-28T07:38:55.548Z,2.57
2023-01-28T07:41:43.279Z,1.97
2023-01-28T07:44:28.911Z,1.50
2023-01-28T07:47:14.470Z,1.60
2023-01-28T07:50:00.166Z,2.23
2023-01-28T07:52:45.911Z,2.10
2023-01-28T07:55:35.892Z,2.13
2023-01-28T07:58:25.872Z,2.73
2023-01-28T08:01:11.574Z,1.90
2023-01-28T08:03:56.866Z,1.60
2023-01-28T08:06:42.343Z,2.70
2023-01-28T08:09:27.980Z,2.10
2023-01-28T08:12:13.660Z,2.30
2023-01-28T08:14:59.248Z,2.00
2023-01-28T08:17:45.160Z,2.00
2023-01-28T08:20:30.991Z,2.17
2023-01-28T08:23:20.541Z,1.87
2023-01-28T08:26:07.121Z,2.10
2023-01-28T08:28:52.858Z,1.83
2023-01-28T08:31:38.296Z,1.87
2023-01-28T08:34:23.960Z,1.80
2023-01-28T08:37:09.728Z,2.17
2023-01-28T08:39:55.414Z,1.90
2023-01-28T08:42:46.371Z,1.67
2023-01-28T08:45:32.391Z,2.13
2023-01-28T08:48:19.507Z,1.77
2023-01-28T08:51:05.575Z,1.37
2023-01-28T08:53:53.625Z,1.40
2023-01-28T08:56:39.353Z,1.73
2023-01-28T08:59:24.565Z,1.70
2023-01-28T09:02:25.526Z,1.30
2023-01-28T09:05:17.054Z,1.37
2023-01-28T09:08:05.911Z,0.80
2023-01-28T09:10:56.585Z,1.13
2023-01-28T09:13:41.927Z,1.10
2023-01-28T09:16:29.928Z,1.10
2023-01-28T09:19:17.812Z,1.13
2023-01-28T09:22:07.125Z,0.80
2023-01-28T09:24:52.789Z,0.97
2023-01-28T09:27:38.865Z,0.97
2023-01-28T09:30:25.683Z,0.93
2023-01-28T09:33:13.307Z,0.70
2023-01-28T09:36:03.817Z,0.70
2023-01-28T09:38:51.808Z,0.90
2023-01-28T09:42:06.113Z,0.50
2023-01-28T09:45:01.990Z,0.90
2023-01-28T09:47:59.759Z,0.70
2023-01-28T09:50:55.405Z,0.83
2023-01-28T09:53:50.045Z,0.90
2023-01-28T09:56:46.057Z,0.57
2023-01-28T09:59:38.392Z,0.60
2023-01-28T10:02:57.849Z,0.60
2023-01-28T10:05:51.387Z,0.77
2023-01-28T10:09:00.331Z,0.53
2023-01-28T10:12:16.349Z,0.73
2023-01-28T10:15:35.957Z,0.50
2023-01-28T10:18:36.194Z,0.80
2023-01-28T10:21:43.059Z,0.70
2023-01-28T10:24:36.837Z,0.60
2023-01-28T10:27:29.412Z,0.60
2023-01-28T10:30:22.282Z,0.60
2023-01-28T10:33:23.595Z,0.77
2023-01-28T10:36:13.213Z,0.90
2023-01-28T10:38:58.751Z,0.60
2023-01-28T10:41:56.762Z,0.60
2023-01-28T10:44:47.403Z,0.73
2023-01-28T10:47:43.912Z,0.60
2023-01-28T10:50:35.470Z,0.60
2023-01-28T10:53:33.136Z,0.60
2023-01-28T10:56:26.760Z,0.60
2023-01-28T10:59:24.030Z,0.67
2023-01-28T11:02:28.523Z,0.60
2023-01-28T11:05:20.888Z,0.80
2023-01-28T11:08:24.735Z,0.80
2023-01-28T11:11:16.988Z,0.60
2023-01-28T11:14:02.557Z,0.50
2023-01-28T11:16:48.630Z,0.70
2023-01-28T11:19:39.111Z,0.70
2023-01-28T11:22:38.681Z,0.70
2023-01-28T11:25:44.955Z,0.60
2023-01-28T11:28:31.472Z,0.80
2023-01-28T11:31:19.262Z,0.50
2023-01-28T11:34:06.209Z,0.57
2023-01-28T11:37:12.773Z,0.50
2023-01-28T11:40:21.668Z,0.60
2023-01-28T11:43:09.106Z,0.60
2023-01-28T11:46:06.551Z,0.80
2023-01-28T11:49:01.214Z,0.70
2023-01-28T11:52:12.746Z,0.90
2023-01-28T11:55:16.799Z,1.50
2023-01-28T11:58:22.391Z,0.73
2023-01-28T12:01:19.961Z,0.70
2023-01-28T12:04:20.826Z,1.00
2023-01-28T12:07:32.046Z,0.80
2023-01-28T12:10:26.889Z,0.70
2023-01-28T12:13:12.556Z,1.00
2023-01-28T12:16:03.537Z,0.90
2023-01-28T12:19:07.354Z,0.97
2023-01-28T12:22:13.870Z,0.90
2023-01-28T12:25:21.686Z,0.70
2023-01-28T12:28:24.360Z,0.77
2023-01-28T12:31:18.889Z,0.63
2023-01-28T12:34:28.572Z,0.83
2023-01-28T12:37:28.657Z,0.90
2023-01-28T12:40:23.111Z,1.00
2023-01-28T12:43:37.521Z,1.00
2023-01-28T12:46:45.312Z,1.27
2023-01-28T12:49:50.420Z,0.90
2023-01-28T12:52:44.659Z,3.73
2023-01-28T12:55:41.385Z,0.80
2023-01-28T12:59:10.335Z,1.17
2023-01-28T13:02:08.512Z,1.10
2023-01-28T13:05:04.795Z,0.70
2023-01-28T13:08:18.395Z,0.97
2023-01-28T13:11:06.079Z,0.87
2023-01-28T13:13:52.019Z,0.90
2023-01-28T13:16:38.243Z,1.00
2023-01-28T13:19:37.798Z,0.80
2023-01-28T13:22:31.118Z,0.77
2023-01-28T13:25:30.019Z,0.90
2023-01-28T13:28:30.223Z,0.90
2023-01-28T13:31:22.995Z,0.90
2023-01-28T13:34:26.704Z,0.70
2023-01-28T13:37:37.611Z,0.90
2023-01-28T13:40:29.104Z,0.70
2023-01-28T13:43:33.426Z,0.83
2023-01-28T13:46:30.574Z,0.70
2023-01-28T13:49:23.144Z,0.70
2023-01-28T13:52:13.831Z,0.50
2023-01-28T13:55:37.482Z,0.70
2023-01-28T13:58:49.205Z,0.70
2023-01-28T14:01:59.862Z,0.97
2023-01-28T14:05:25.055Z,0.80
2023-01-28T14:08:24.664Z,0.70
2023-01-28T14:11:40.868Z,1.00
2023-01-28T14:15:04.801Z,0.90
2023-01-28T14:18:00.678Z,0.70
2023-01-28T14:20:46.252Z,0.70
2023-01-28T14:23:32.721Z,1.20
2023-01-28T14:26:32.959Z,0.97
2023-01-28T14:29:39.682Z,0.60
2023-01-28T14:32:29.575Z,0.80
2023-01-28T14:35:40.070Z,0.90
2023-01-28T14:38:25.627Z,0.80
2023-01-28T14:41:22.255Z,0.80
2023-01-28T14:44:08.466Z,0.90
2023-01-28T14:47:16.710Z,1.07
2023-01-28T14:50:04.707Z,0.80
2023-01-28T14:53:21.173Z,0.57
2023-01-28T14:56:09.915Z,0.70
2023-01-28T14:59:13.735Z,0.60
2023-01-28T15:02:00.153Z,0.87
2023-01-28T15:04:45.888Z,0.70
2023-01-28T15:07:31.412Z,0.60
2023-01-28T15:10:17.814Z,0.90
2023-01-28T15:13:06.581Z,0.67
2023-01-28T15:15:58.177Z,0.70
2023-01-28T15:18:44.876Z,0.50
2023-01-28T15:21:31.165Z,0.60
2023-01-28T15:24:19.033Z,1.60
2023-01-28T15:27:04.882Z,0.60
2023-01-28T15:29:58.089Z,0.77
2023-01-28T15:32:45.530Z,0.80
2023-01-28T15:35:32.279Z,0.90
2023-01-28T15:38:18.339Z,0.90
2023-01-28T15:41:06.028Z,0.60
2023-01-28T15:43:55.239Z,0.60
2023-01-28T15:46:43.121Z,0.63
2023-01-28T15:49:35.615Z,1.00
2023-01-28T15:52:29.607Z,0.90
2023-01-28T15:55:42.967Z,0.70
2023-01-28T15:58:35.201Z,0.70
2023-01-28T16:01:23.741Z,0.60
2023-01-28T16:04:27.153Z,0.60
2023-01-28T16:07:12.482Z,0.80
2023-01-28T16:10:02.216Z,0.80
2023-01-28T16:12:54.396Z,1.00
2023-01-28T16:15:45.854Z,0.73
2023-01-28T16:18:38.883Z,1.00
2023-01-28T16:21:36.860Z,0.70
2023-01-28T16:24:32.366Z,0.90
2023-01-28T16:27:24.083Z,0.90
2023-01-28T16:30:11.409Z,0.80
2023-01-28T16:33:00.331Z,0.70
2023-01-28T16:36:04.565Z,0.70
2023-01-28T16:38:51.478Z,1.37
2023-01-28T16:41:43.853Z,0.90
2023-01-28T16:44:29.526Z,0.90
2023-01-28T16:47:16.741Z,0.93
2023-01-28T16:50:05.361Z,0.77
2023-01-28T16:52:53.731Z,0.70
2023-01-28T16:55:44.713Z,0.90
2023-01-28T16:58:33.151Z,0.80
2023-01-28T17:01:18.373Z,0.90
2023-01-28T17:04:12.601Z,0.70
2023-01-28T17:07:03.622Z,1.00
2023-01-28T17:09:48.939Z,0.80
2023-01-28T17:12:37.282Z,0.70
2023-01-28T17:15:22.551Z,0.90
2023-01-28T17:18:10.425Z,1.50
2023-01-28T17:21:01.359Z,0.70
2023-01-28T17:23:46.927Z,1.30
2023-01-28T17:26:33.927Z,1.20
2023-01-28T17:29:19.802Z,1.20
2023-01-28T17:32:05.450Z,0.63
2023-01-28T17:34:51.722Z,0.83
2023-01-28T17:37:38.336Z,1.73
2023-01-28T17:40:26.314Z,1.17
2023-01-28T17:43:11.587Z,0.80
2023-01-28T17:45:56.988Z,1.10
2023-01-28T17:48:45.887Z,0.90
2023-01-28T17:51:31.411Z,0.73
2023-01-28T17:54:17.020Z,0.87
2023-01-28T17:57:02.822Z,1.20
2023-01-28T17:59:48.417Z,0.60
2023-01-28T18:02:34.154Z,2.03
2023-01-28T18:05:20.856Z,1.10
2023-01-28T18:08:06.829Z,0.90
2023-01-28T18:10:52.069Z,1.00
2023-01-28T18:13:42.249Z,1.07
2023-01-28T18:16:30.775Z,1.17
2023-01-28T18:19:16.149Z,1.20
2023-01-28T18:22:04.228Z,1.10
2023-01-28T18:24:49.860Z,1.20
2023-01-28T18:27:35.397Z,1.07
2023-01-28T18:30:21.569Z,1.03
2023-01-28T18:33:07.026Z,1.40
2023-01-28T18:35:57.538Z,0.80
2023-01-28T18:38:42.972Z,1.03
2023-01-28T18:41:28.291Z,1.37
2023-01-28T18:44:15.518Z,0.97
2023-01-28T18:47:03.579Z,0.97
2023-01-28T18:49:51.476Z,1.00
2023-01-28T18:52:37.424Z,1.17
2023-01-28T18:55:25.676Z,1.20
2023-01-28T18:58:11.453Z,0.97
2023-01-28T19:00:57.819Z,1.03
2023-01-28T19:03:43.467Z,1.20
2023-01-28T19:06:33.025Z,1.20
2023-01-28T19:09:18.384Z,1.17
2023-01-28T19:12:04.672Z,2.83
2023-01-28T19:14:50.327Z,0.90
2023-01-28T19:17:40.642Z,1.23
2023-01-28T19:20:28.441Z,1.00
2023-01-28T19:23:14.505Z,1.20
2023-01-28T19:26:07.666Z,1.10
2023-01-28T19:28:56.269Z,0.90
2023-01-28T19:31:44.597Z,1.27
2023-01-28T19:34:30.181Z,1.40
2023-01-28T19:37:15.914Z,1.33
2023-01-28T19:40:03.262Z,1.17
2023-01-28T19:42:53.051Z,1.30
2023-01-28T19:45:38.458Z,1.00
2023-01-28T19:48:24.546Z,1.00
2023-01-28T19:51:11.747Z,1.10
2023-01-28T19:54:01.531Z,1.20
2023-01-28T19:56:49.442Z,1.20
2023-01-28T19:59:37.230Z,0.90
2023-01-28T20:02:25.893Z,0.80
2023-01-28T20:05:13.998Z,0.97
2023-01-28T20:08:02.057Z,1.23
2023-01-28T20:10:47.332Z,0.70
2023-01-28T20:13:34.224Z,1.33
2023-01-28T20:16:23.223Z,1.57
2023-01-28T20:19:18.576Z,1.10
2023-01-28T20:22:05.749Z,0.97
2023-01-28T20:24:57.064Z,0.80
2023-01-28T20:27:42.512Z,1.17
2023-01-28T20:30:30.827Z,1.30
2023-01-28T20:33:19.977Z,1.30
2023-01-28T20:36:07.912Z,1.30
2023-01-28T20:38:53.632Z,1.20
2023-01-28T20:41:39.524Z,1.20
2023-01-28T20:44:26.772Z,1.63
2023-01-28T20:47:12.833Z,1.10
2023-01-28T20:49:58.289Z,1.43
2023-01-28T20:52:43.985Z,1.50
2023-01-28T20:55:29.449Z,1.37
2023-01-28T20:58:15.315Z,1.70
2023-01-28T21:01:01.144Z,1.50
2023-01-28T21:03:49.755Z,1.37
2023-01-28T21:06:41.996Z,2.03
2023-01-28T21:09:27.957Z,1.50
2023-01-28T21:12:13.923Z,1.60
2023-01-28T21:15:01.867Z,1.30
2023-01-28T21:17:47.239Z,1.43
2023-01-28T21:20:34.118Z,2.00
2023-01-28T21:23:22.087Z,1.80
2023-01-28T21:26:08.385Z,1.80
2023-01-28T21:28:55.626Z,1.70
2023-01-28T21:31:41.356Z,2.20
2023-01-28T21:34:26.885Z,1.40
2023-01-28T21:37:12.133Z,1.87
2023-01-28T21:39:57.689Z,1.40
2023-01-28T21:42:43.596Z,1.47
2023-01-28T21:45:29.104Z,1.73
2023-01-28T21:48:14.554Z,1.70
2023-01-28T21:51:25.986Z,1.83
2023-01-28T21:54:20.808Z,1.60
2023-01-28T21:57:06.192Z,1.53
2023-01-28T21:59:51.560Z,1.70
2023-01-28T22:02:37.695Z,1.57
2023-01-28T22:05:23.341Z,1.50
2023-01-28T22:08:08.849Z,1.60
2023-01-28T22:10:56.808Z,1.83
2023-01-28T22:13:43.193Z,2.07
2023-01-28T22:16:28.873Z,1.87
2023-01-28T22:19:14.972Z,1.40
2023-01-28T22:22:00.996Z,1.87
2023-01-28T22:24:46.686Z,1.40
2023-01-28T22:27:35.525Z,2.00
2023-01-28T22:30:21.141Z,1.90
2023-01-28T22:33:09.195Z,2.03
2023-01-28T22:35:57.222Z,1.73
2023-01-28T22:38:44.500Z,1.57
2023-01-28T22:41:30.900Z,1.50
2023-01-28T22:44:16.718Z,2.23
2023-01-28T22:47:02.092Z,2.13
2023-01-28T22:49:47.574Z,1.83
2023-01-28T22:52:33.080Z,2.00
2023-01-28T22:55:18.802Z,2.27
2023-01-28T22:58:05.493Z,2.00
2023-01-28T23:00:51.355Z,2.43
2023-01-28T23:03:37.257Z,2.37
2023-01-28T23:06:24.811Z,1.70
2023-01-28T23:09:12.395Z,2.20
2023-01-28T23:11:58.013Z,2.30
2023-01-28T23:15:04.077Z,3.50
2023-01-28T23:18:07.942Z,2.80
2023-01-28T23:21:12.036Z,2.30
2023-01-28T23:24:15.867Z,2.20
2023-01-28T23:27:02.961Z,2.50
2023-01-28T23:29:49.105Z,2.57
2023-01-28T23:32:37.266Z,2.93
2023-01-28T23:35:25.988Z,2.70
2023-01-28T23:38:11.329Z,2.20
2023-01-28T23:40:56.721Z,2.53
2023-01-28T23:43:42.244Z,3.07
2023-01-28T23:46:39.036Z,2.60
2023-01-28T23:49:26.269Z,3.00
2023-01-28T23:52:12.009Z,2.70
2023-01-28T23:54:57.829Z,3.00
2023-01-28T23:57:43.533Z,2.80
